createdAt,value
2023-12-23T00:00:47.099Z,7.17
2023-12-23T00:03:13.609Z,7.10
2023-12-23T00:05:40.071Z,7.08
2023-12-23T00:08:06.660Z,6.93
2023-12-23T00:10:33.193Z,6.83
2023-12-23T00:12:59.624Z,6.60
2023-12-23T00:15:26.041Z,6.72
2023-12-23T00:17:52.852Z,6.57
2023-12-23T00:20:19.958Z,6.54
2023-12-23T00:22:46.505Z,6.50
2023-12-23T00:25:12.918Z,6.30
2023-12-23T00:27:39.319Z,6.48
2023-12-23T00:30:05.829Z,6.44
2023-12-23T00:32:32.298Z,6.43
2023-12-23T00:34:58.821Z,6.31
2023-12-23T00:37:25.416Z,6.29
2023-12-23T00:39:51.904Z,6.36
2023-12-23T00:42:18.318Z,6.37
2023-12-23T00:44:44.726Z,6.39
2023-12-23T00:47:11.263Z,6.43
2023-12-23T00:49:37.812Z,6.40
2023-12-23T00:52:04.236Z,6.54
2023-12-23T00:54:30.656Z,6.51
2023-12-23T00:56:57.076Z,6.54
2023-12-23T00:59:23.527Z,6.44
2023-12-23T01:01:50.014Z,6.47
2023-12-23T01:04:16.479Z,6.42
2023-12-23T01:06:42.993Z,6.34
2023-12-23T01:09:09.460Z,6.25
2023-12-23T01:11:35.858Z,6.22
2023-12-23T01:14:02.318Z,6.45
2023-12-23T01:16:28.745Z,6.53
2023-12-23T01:18:55.176Z,6.52
2023-12-23T01:21:21.629Z,6.44
2023-12-23T01:23:48.054Z,6.67
2023-12-23T01:26:14.614Z,6.93
2023-12-23T01:28:41.085Z,6.53
2023-12-23T01:31:07.549Z,6.42
2023-12-23T01:33:34.016Z,6.28
2023-12-23T01:36:00.485Z,6.34
2023-12-23T01:38:26.954Z,6.29
2023-12-23T01:40:53.491Z,6.22
2023-12-23T01:43:19.918Z,6.23
2023-12-23T01:45:46.339Z,6.00
2023-12-23T01:48:12.872Z,6.13
2023-12-23T01:50:39.306Z,6.21
2023-12-23T01:53:05.777Z,6.28
2023-12-23T01:55:32.212Z,6.29
2023-12-23T01:57:58.637Z,6.18
2023-12-23T02:00:25.052Z,6.14
2023-12-23T02:02:51.906Z,6.06
2023-12-23T02:05:18.784Z,6.01
2023-12-23T02:07:45.303Z,6.00
2023-12-23T02:10:11.722Z,5.97
2023-12-23T02:12:39.738Z,6.15
2023-12-23T02:15:06.290Z,6.17
2023-12-23T02:17:32.831Z,6.22
2023-12-23T02:19:59.308Z,6.10
2023-12-23T02:22:25.711Z,6.01
2023-12-23T02:24:52.127Z,6.05
2023-12-23T02:27:18.553Z,6.07
2023-12-23T02:29:44.965Z,6.05
2023-12-23T02:32:11.422Z,5.98
2023-12-23T02:34:37.854Z,5.91
2023-12-23T02:37:04.311Z,5.82
2023-12-23T02:39:30.721Z,5.82
2023-12-23T02:41:57.165Z,6.03
2023-12-23T02:44:23.596Z,5.95
2023-12-23T02:46:50.106Z,5.85
2023-12-23T02:49:16.546Z,5.89
2023-12-23T02:51:42.954Z,5.87
2023-12-23T02:54:09.393Z,5.99
2023-12-23T02:56:35.804Z,5.95
2023-12-23T02:59:02.335Z,6.09
2023-12-23T03:01:28.777Z,5.95
2023-12-23T03:03:55.211Z,6.00
2023-12-23T03:06:21.636Z,5.96
2023-12-23T03:08:48.068Z,6.17
2023-12-23T03:11:14.648Z,5.85
2023-12-23T03:13:43.377Z,5.91
2023-12-23T03:16:09.822Z,6.01
2023-12-23T03:18:36.349Z,5.91
2023-12-23T03:21:02.814Z,6.04
2023-12-23T03:23:29.362Z,5.86
2023-12-23T03:25:55.856Z,6.00
2023-12-23T03:28:22.316Z,5.89
2023-12-23T03:30:48.823Z,5.81
2023-12-23T03:33:15.374Z,5.92
2023-12-23T03:35:41.806Z,6.18
2023-12-23T03:38:08.274Z,5.93
2023-12-23T03:40:34.721Z,6.06
2023-12-23T03:43:01.149Z,5.94
2023-12-23T03:45:27.564Z,5.90
2023-12-23T03:47:54.143Z,6.02
2023-12-23T03:50:20.668Z,6.14
2023-12-23T03:52:47.315Z,6.22
2023-12-23T03:55:13.818Z,6.17
2023-12-23T03:57:40.220Z,6.13
2023-12-23T04:00:06.646Z,6.01
2023-12-23T04:02:33.071Z,5.95
2023-12-23T04:04:59.524Z,5.78
2023-12-23T04:07:26.013Z,5.75
2023-12-23T04:09:52.422Z,5.62
2023-12-23T04:12:18.839Z,5.55
2023-12-23T04:14:45.230Z,5.71
2023-12-23T04:17:11.720Z,5.54
2023-12-23T04:19:38.133Z,5.76
2023-12-23T04:22:04.572Z,5.76
2023-12-23T04:24:31.005Z,5.79
2023-12-23T04:26:57.442Z,5.79
2023-12-23T04:29:23.917Z,5.62
2023-12-23T04:31:50.460Z,5.85
2023-12-23T04:34:17.045Z,5.54
2023-12-23T04:36:43.547Z,5.61
2023-12-23T04:39:09.985Z,5.67
2023-12-23T04:41:36.410Z,5.77
2023-12-23T04:44:02.879Z,5.88
2023-12-23T04:46:29.310Z,6.14
2023-12-23T04:48:55.751Z,6.44
2023-12-23T04:51:22.185Z,6.53
2023-12-23T04:53:48.591Z,6.49
2023-12-23T04:56:15.067Z,6.23
2023-12-23T04:58:41.528Z,6.03
2023-12-23T05:01:07.996Z,6.04
2023-12-23T05:03:34.497Z,6.08
2023-12-23T05:06:01.013Z,5.94
2023-12-23T05:08:27.505Z,6.09
2023-12-23T05:10:53.995Z,6.25
2023-12-23T05:13:20.435Z,6.06
2023-12-23T05:15:46.852Z,5.78
2023-12-23T05:18:13.376Z,5.76
2023-12-23T05:20:39.837Z,5.63
2023-12-23T05:23:06.296Z,5.65
2023-12-23T05:25:32.803Z,5.79
2023-12-23T05:27:59.218Z,5.76
2023-12-23T05:30:25.691Z,5.84
2023-12-23T05:32:52.564Z,6.05
2023-12-23T05:35:19.320Z,6.07
2023-12-23T05:37:45.778Z,5.92
2023-12-23T05:40:12.215Z,5.84
2023-12-23T05:42:38.616Z,5.69
2023-12-23T05:45:05.078Z,5.65
2023-12-23T05:47:31.669Z,5.76
2023-12-23T05:49:58.170Z,5.69
2023-12-23T05:52:24.611Z,5.84
2023-12-23T05:54:51.020Z,5.96
2023-12-23T05:57:17.435Z,5.90
2023-12-23T05:59:43.844Z,5.82
2023-12-23T06:02:10.293Z,5.98
2023-12-23T06:04:36.710Z,6.16
2023-12-23T06:07:03.153Z,5.90
2023-12-23T06:09:29.595Z,5.90
2023-12-23T06:11:56.018Z,5.73
2023-12-23T06:14:22.508Z,5.68
2023-12-23T06:16:49.010Z,5.54
2023-12-23T06:19:15.597Z,5.63
2023-12-23T06:21:42.054Z,5.64
2023-12-23T06:24:08.473Z,5.85
2023-12-23T06:26:34.896Z,5.79
2023-12-23T06:29:01.365Z,5.81
2023-12-23T06:31:27.806Z,5.76
2023-12-23T06:33:54.330Z,5.70
2023-12-23T06:36:20.883Z,5.58
2023-12-23T06:38:47.313Z,5.52
2023-12-23T06:41:13.811Z,5.70
2023-12-23T06:43:46.463Z,5.68
2023-12-23T06:46:18.504Z,5.43
2023-12-23T06:48:45.048Z,5.65
2023-12-23T06:51:11.533Z,5.58
2023-12-23T06:53:37.940Z,5.45
2023-12-23T06:56:04.375Z,5.50
2023-12-23T06:58:30.796Z,5.46
2023-12-23T07:00:57.242Z,5.59
2023-12-23T07:03:23.720Z,5.63
2023-12-23T07:05:50.207Z,5.69
2023-12-23T07:08:16.765Z,5.85
2023-12-23T07:10:43.262Z,5.76
2023-12-23T07:13:09.694Z,5.80
2023-12-23T07:15:36.099Z,5.79
2023-12-23T07:18:02.634Z,5.79
2023-12-23T07:20:29.167Z,5.63
2023-12-23T07:22:55.686Z,5.68
2023-12-23T07:25:22.139Z,5.67
2023-12-23T07:27:48.572Z,5.82
2023-12-23T07:30:15.052Z,5.93
2023-12-23T07:32:41.551Z,6.05
2023-12-23T07:35:08.037Z,5.74
2023-12-23T07:37:34.509Z,5.75
2023-12-23T07:40:00.933Z,5.63
2023-12-23T07:42:27.355Z,6.07
2023-12-23T07:44:53.781Z,6.15
2023-12-23T07:47:20.232Z,6.02
2023-12-23T07:49:46.678Z,5.89
2023-12-23T07:52:13.140Z,5.79
2023-12-23T07:54:39.559Z,5.58
2023-12-23T07:57:05.981Z,5.53
2023-12-23T07:59:32.419Z,5.47
2023-12-23T08:01:58.945Z,5.45
2023-12-23T08:04:25.370Z,5.67
2023-12-23T08:06:51.781Z,5.63
2023-12-23T08:09:18.197Z,5.72
2023-12-23T08:11:44.596Z,5.68
2023-12-23T08:14:11.095Z,5.61
2023-12-23T08:16:37.525Z,5.86
2023-12-23T08:19:04.007Z,5.65
2023-12-23T08:21:30.462Z,5.69
2023-12-23T08:23:56.889Z,5.75
2023-12-23T08:26:23.324Z,5.50
2023-12-23T08:28:49.765Z,5.60
2023-12-23T08:31:16.234Z,5.43
2023-12-23T08:33:42.742Z,5.46
2023-12-23T08:36:09.204Z,5.60
2023-12-23T08:38:35.687Z,5.60
2023-12-23T08:41:02.230Z,5.56
2023-12-23T08:43:28.667Z,5.74
2023-12-23T08:45:55.059Z,5.76
2023-12-23T08:48:21.643Z,5.83
2023-12-23T08:50:48.103Z,6.18
2023-12-23T08:53:14.575Z,5.91
2023-12-23T08:55:41.042Z,6.11
2023-12-23T08:58:07.492Z,6.08
2023-12-23T09:00:33.944Z,6.30
2023-12-23T09:03:00.484Z,6.23
2023-12-23T09:05:27.038Z,6.54
2023-12-23T09:07:54.022Z,6.66
2023-12-23T09:10:20.699Z,6.78
2023-12-23T09:12:47.113Z,7.14
2023-12-23T09:15:13.560Z,7.17
2023-12-23T09:17:40.179Z,7.15
2023-12-23T09:20:06.827Z,6.85
2023-12-23T09:22:33.278Z,6.90
2023-12-23T09:24:59.711Z,7.19
2023-12-23T09:27:26.161Z,6.69
2023-12-23T09:29:54.612Z,6.98
2023-12-23T09:32:21.457Z,7.26
2023-12-23T09:34:47.990Z,7.13
2023-12-23T09:37:14.404Z,7.42
2023-12-23T09:39:40.877Z,7.42
2023-12-23T09:42:07.280Z,7.37
2023-12-23T09:44:33.751Z,7.45
2023-12-23T09:47:00.337Z,7.81
2023-12-23T09:49:26.859Z,7.47
2023-12-23T09:51:53.315Z,7.45
2023-12-23T09:54:19.743Z,7.49
2023-12-23T09:56:46.179Z,7.62
2023-12-23T09:59:12.676Z,7.64
2023-12-23T10:01:39.193Z,7.61
2023-12-23T10:04:05.634Z,7.46
2023-12-23T10:06:32.221Z,7.50
2023-12-23T10:08:58.699Z,7.38
2023-12-23T10:11:25.296Z,7.30
2023-12-23T10:13:51.817Z,7.66
2023-12-23T10:16:18.251Z,7.42
2023-12-23T10:18:44.791Z,7.65
2023-12-23T10:21:11.254Z,8.30
2023-12-23T10:23:37.690Z,7.99
2023-12-23T10:26:04.245Z,7.93
2023-12-23T10:28:30.676Z,7.78
2023-12-23T10:30:57.212Z,7.95
2023-12-23T10:33:23.721Z,8.16
2023-12-23T10:35:51.238Z,8.25
2023-12-23T10:38:17.698Z,8.40
2023-12-23T10:40:44.241Z,8.04
2023-12-23T10:43:10.714Z,8.04
2023-12-23T10:45:37.492Z,7.93
2023-12-23T10:48:04.072Z,7.60
2023-12-23T10:50:30.685Z,7.76
2023-12-23T10:52:57.142Z,7.98
2023-12-23T10:55:23.605Z,8.15
2023-12-23T10:57:50.090Z,8.32
2023-12-23T11:00:16.501Z,7.78
2023-12-23T11:02:42.979Z,8.82
2023-12-23T11:05:09.510Z,8.36
2023-12-23T11:07:35.956Z,8.70
2023-12-23T11:10:02.432Z,8.56
2023-12-23T11:12:28.886Z,8.68
2023-12-23T11:14:55.325Z,8.48
2023-12-23T11:17:21.809Z,8.76
2023-12-23T11:19:48.250Z,8.72
2023-12-23T11:22:14.674Z,8.44
2023-12-23T11:24:41.087Z,8.55
2023-12-23T11:27:07.489Z,8.88
2023-12-23T11:29:34.008Z,9.54
2023-12-23T11:32:00.464Z,9.96
2023-12-23T11:34:26.941Z,9.33
2023-12-23T11:36:53.366Z,9.13
2023-12-23T11:39:19.803Z,8.34
2023-12-23T11:41:46.241Z,8.57
2023-12-23T11:44:12.763Z,8.64
2023-12-23T11:46:39.224Z,8.65
2023-12-23T11:49:05.696Z,8.11
2023-12-23T11:51:32.138Z,8.08
2023-12-23T11:54:00.348Z,8.17
2023-12-23T11:56:27.138Z,8.95
2023-12-23T11:58:53.888Z,8.83
2023-12-23T12:01:20.458Z,9.13
2023-12-23T12:03:46.953Z,8.70
2023-12-23T12:06:13.433Z,8.58
2023-12-23T12:08:39.947Z,8.53
2023-12-23T12:11:06.405Z,8.46
2023-12-23T12:13:32.838Z,8.23
2023-12-23T12:15:59.427Z,8.32
2023-12-23T12:18:26.008Z,8.82
2023-12-23T12:20:52.553Z,8.83
2023-12-23T12:23:19.059Z,9.15
2023-12-23T12:25:45.510Z,9.30
2023-12-23T12:28:12.118Z,9.39
2023-12-23T12:30:38.565Z,9.11
2023-12-23T12:33:05.107Z,8.70
2023-12-23T12:35:31.628Z,9.07
2023-12-23T12:37:58.864Z,9.04
2023-12-23T12:40:26.545Z,9.28
2023-12-23T12:42:53.304Z,9.14
2023-12-23T12:45:20.002Z,9.00
2023-12-23T12:47:46.455Z,9.10
2023-12-23T12:50:12.922Z,9.30
2023-12-23T12:52:39.373Z,9.14
2023-12-23T12:55:05.778Z,9.82
2023-12-23T12:57:33.306Z,9.60
2023-12-23T12:59:59.735Z,9.69
2023-12-23T13:02:26.201Z,9.45
2023-12-23T13:04:52.678Z,9.58
2023-12-23T13:07:19.115Z,10.26
2023-12-23T13:09:45.539Z,10.28
2023-12-23T13:12:11.975Z,10.14
2023-12-23T13:14:38.386Z,10.76
2023-12-23T13:17:04.858Z,10.84
2023-12-23T13:19:31.346Z,10.97
2023-12-23T13:21:57.813Z,10.51
2023-12-23T13:24:24.231Z,10.62
2023-12-23T13:26:50.659Z,9.47
2023-12-23T13:29:17.121Z,10.71
2023-12-23T13:31:43.561Z,10.59
2023-12-23T13:34:11.996Z,10.71
2023-12-23T13:36:38.579Z,10.06
2023-12-23T13:39:04.994Z,10.49
2023-12-23T13:41:31.457Z,10.58
2023-12-23T13:43:57.977Z,11.13
2023-12-23T13:46:24.446Z,10.92
2023-12-23T13:48:50.986Z,11.40
2023-12-23T13:51:17.453Z,11.60
2023-12-23T13:53:43.887Z,10.99
2023-12-23T13:56:10.416Z,12.19
2023-12-23T13:58:36.893Z,12.08
2023-12-23T14:01:03.328Z,12.18
2023-12-23T14:03:29.831Z,11.73
2023-12-23T14:05:56.322Z,11.21
2023-12-23T14:08:23.029Z,11.82
2023-12-23T14:10:50.129Z,12.04
2023-12-23T14:13:16.686Z,11.80
2023-12-23T14:15:43.121Z,11.87
2023-12-23T14:18:09.626Z,12.55
2023-12-23T14:20:36.122Z,12.03
2023-12-23T14:23:02.605Z,12.40
2023-12-23T14:25:29.127Z,12.43
2023-12-23T14:27:55.574Z,12.13
2023-12-23T14:30:22.068Z,13.28
2023-12-23T14:32:48.573Z,13.07
2023-12-23T14:35:15.125Z,12.70
2023-12-23T14:37:48.436Z,12.42
2023-12-23T14:40:17.057Z,12.85
2023-12-23T14:42:43.489Z,12.36
2023-12-23T14:45:09.928Z,12.03
2023-12-23T14:47:36.518Z,12.69
2023-12-23T14:50:03.068Z,11.75
2023-12-23T14:52:29.549Z,12.58
2023-12-23T14:54:55.966Z,11.51
2023-12-23T14:57:22.390Z,11.40
2023-12-23T14:59:48.872Z,11.80
2023-12-23T15:02:15.368Z,11.51
2023-12-23T15:04:41.842Z,11.77
2023-12-23T15:07:08.287Z,12.40
2023-12-23T15:09:34.697Z,13.40
2023-12-23T15:12:01.103Z,11.27
2023-12-23T15:14:27.553Z,11.92
2023-12-23T15:16:54.026Z,11.38
2023-12-23T15:19:20.453Z,12.34
2023-12-23T15:21:46.920Z,11.70
2023-12-23T15:24:13.360Z,11.01
2023-12-23T15:26:39.780Z,11.28
2023-12-23T15:29:06.293Z,10.58
2023-12-23T15:31:33.045Z,9.83
2023-12-23T15:33:59.593Z,9.89
2023-12-23T15:36:26.248Z,9.64
2023-12-23T15:38:52.717Z,9.30
2023-12-23T15:41:19.161Z,9.38
2023-12-23T15:43:45.588Z,8.37
2023-12-23T15:46:12.002Z,7.39
2023-12-23T15:48:38.515Z,7.27
2023-12-23T15:51:05.010Z,7.32
2023-12-23T15:53:31.595Z,7.33
2023-12-23T15:55:58.168Z,7.24
2023-12-23T15:58:24.621Z,7.04
2023-12-23T16:00:51.058Z,7.06
2023-12-23T16:03:17.547Z,7.05
2023-12-23T16:05:44.074Z,6.93
2023-12-23T16:08:10.632Z,7.19
2023-12-23T16:10:37.132Z,7.12
2023-12-23T16:13:03.551Z,7.20
2023-12-23T16:15:29.976Z,7.02
2023-12-23T16:17:56.470Z,7.01
2023-12-23T16:20:23.018Z,6.79
2023-12-23T16:22:49.741Z,7.01
2023-12-23T16:25:16.323Z,7.23
2023-12-23T16:27:42.729Z,7.04
2023-12-23T16:30:09.201Z,7.23
2023-12-23T16:32:35.743Z,7.24
2023-12-23T16:35:02.241Z,6.96
2023-12-23T16:37:28.745Z,7.11
2023-12-23T16:39:55.177Z,7.39
2023-12-23T16:42:21.569Z,6.95
2023-12-23T16:44:48.004Z,7.07
2023-12-23T16:47:14.432Z,7.06
2023-12-23T16:49:42.230Z,7.33
2023-12-23T16:52:08.956Z,6.97
2023-12-23T16:54:35.372Z,6.62
2023-12-23T16:57:01.821Z,7.01
2023-12-23T16:59:28.290Z,7.19
2023-12-23T17:01:54.825Z,7.44
2023-12-23T17:04:21.299Z,7.54
2023-12-23T17:06:47.729Z,7.39
2023-12-23T17:09:14.139Z,7.26
2023-12-23T17:11:40.600Z,7.42
2023-12-23T17:14:07.062Z,7.44
2023-12-23T17:16:33.490Z,7.31
2023-12-23T17:19:00.008Z,6.70
2023-12-23T17:21:26.540Z,6.62
2023-12-23T17:23:52.975Z,6.47
2023-12-23T17:26:19.395Z,6.71
2023-12-23T17:28:45.862Z,7.01
2023-12-23T17:31:12.277Z,7.50
2023-12-23T17:33:38.784Z,7.33
2023-12-23T17:36:05.215Z,6.73
2023-12-23T17:38:31.726Z,6.51
2023-12-23T17:40:58.246Z,6.86
2023-12-23T17:43:24.692Z,7.05
2023-12-23T17:45:51.118Z,7.35
2023-12-23T17:48:17.590Z,6.79
2023-12-23T17:50:44.059Z,6.36
2023-12-23T17:53:10.487Z,6.44
2023-12-23T17:55:36.912Z,6.57
2023-12-23T17:58:03.337Z,6.69
2023-12-23T18:00:29.838Z,6.83
2023-12-23T18:02:56.386Z,6.68
2023-12-23T18:05:22.997Z,6.87
2023-12-23T18:07:49.501Z,6.50
2023-12-23T18:10:15.929Z,6.37
2023-12-23T18:12:42.369Z,6.25
2023-12-23T18:15:08.785Z,6.45
2023-12-23T18:17:35.302Z,6.77
2023-12-23T18:20:01.910Z,6.60
2023-12-23T18:22:28.380Z,6.55
2023-12-23T18:24:54.798Z,6.50
2023-12-23T18:27:21.252Z,6.47
2023-12-23T18:29:47.679Z,6.53
2023-12-23T18:32:14.112Z,6.13
2023-12-23T18:34:40.709Z,5.91
2023-12-23T18:37:07.239Z,5.70
2023-12-23T18:39:33.683Z,6.09
2023-12-23T18:42:00.167Z,5.68
2023-12-23T18:44:26.659Z,5.57
2023-12-23T18:46:53.155Z,5.94
2023-12-23T18:49:19.642Z,5.58
2023-12-23T18:51:46.059Z,5.75
2023-12-23T18:54:12.516Z,6.05
2023-12-23T18:56:39.000Z,5.99
2023-12-23T18:59:05.602Z,6.14
2023-12-23T19:01:32.220Z,6.51
2023-12-23T19:03:58.647Z,6.59
2023-12-23T19:06:25.078Z,6.64
2023-12-23T19:08:51.501Z,6.81
2023-12-23T19:11:17.954Z,6.98
2023-12-23T19:13:44.400Z,6.58
2023-12-23T19:16:10.841Z,6.73
2023-12-23T19:18:37.390Z,6.70
2023-12-23T19:21:03.914Z,6.37
2023-12-23T19:23:30.499Z,6.26
2023-12-23T19:25:56.985Z,6.47
2023-12-23T19:28:23.420Z,6.31
2023-12-23T19:30:49.915Z,6.27
2023-12-23T19:33:16.465Z,6.40
2023-12-23T19:35:43.069Z,6.08
2023-12-23T19:38:09.538Z,6.03
2023-12-23T19:40:35.985Z,5.92
2023-12-23T19:43:02.428Z,5.54
2023-12-23T19:45:29.205Z,5.40
2023-12-23T19:47:55.760Z,5.44
2023-12-23T19:50:22.324Z,5.16
2023-12-23T19:52:52.150Z,5.38
2023-12-23T19:55:18.676Z,5.43
2023-12-23T19:57:45.106Z,5.57
2023-12-23T20:00:11.552Z,5.33
2023-12-23T20:02:38.065Z,5.50
2023-12-23T20:05:04.572Z,5.52
2023-12-23T20:07:31.071Z,5.53
2023-12-23T20:09:57.547Z,5.42
2023-12-23T20:12:24.021Z,5.42
2023-12-23T20:14:50.444Z,5.51
2023-12-23T20:17:17.068Z,5.68
2023-12-23T20:19:43.479Z,5.88
2023-12-23T20:22:09.946Z,5.96
2023-12-23T20:24:36.356Z,6.30
2023-12-23T20:27:04.669Z,6.29
2023-12-23T20:29:31.676Z,6.40
2023-12-23T20:31:58.414Z,6.48
2023-12-23T20:34:25.062Z,6.38
2023-12-23T20:36:51.736Z,6.69
2023-12-23T20:39:26.490Z,6.67
2023-12-23T20:41:56.464Z,6.29
2023-12-23T20:44:23.047Z,6.52
2023-12-23T20:46:49.487Z,6.83
2023-12-23T20:49:16.291Z,6.88
2023-12-23T20:51:42.704Z,6.14
2023-12-23T20:54:09.128Z,6.21
2023-12-23T20:56:35.642Z,6.54
2023-12-23T20:59:02.102Z,5.99
2023-12-23T21:01:28.741Z,5.91
2023-12-23T21:03:55.239Z,5.75
2023-12-23T21:06:21.756Z,5.71
2023-12-23T21:08:48.284Z,5.56
2023-12-23T21:11:14.786Z,5.56
2023-12-23T21:13:41.242Z,5.60
2023-12-23T21:16:07.692Z,5.72
2023-12-23T21:18:34.246Z,5.57
2023-12-23T21:21:00.719Z,5.76
2023-12-23T21:23:27.184Z,5.24
2023-12-23T21:25:53.737Z,5.41
2023-12-23T21:28:20.173Z,5.82
2023-12-23T21:30:46.642Z,5.79
2023-12-23T21:33:13.195Z,5.99
2023-12-23T21:35:39.863Z,6.01
2023-12-23T21:38:06.396Z,6.04
2023-12-23T21:40:32.846Z,5.97
2023-12-23T21:42:59.267Z,5.99
2023-12-23T21:45:25.684Z,6.19
2023-12-23T21:47:54.112Z,6.44
2023-12-23T21:50:22.453Z,6.50
2023-12-23T21:52:49.125Z,6.30
2023-12-23T21:55:15.705Z,6.27
2023-12-23T21:57:42.140Z,6.29
2023-12-23T22:00:08.584Z,6.52
2023-12-23T22:02:36.365Z,6.10
2023-12-23T22:05:03.951Z,6.07
2023-12-23T22:07:30.415Z,6.08
2023-12-23T22:09:56.833Z,5.98
2023-12-23T22:12:23.256Z,5.79
2023-12-23T22:14:49.679Z,5.59
2023-12-23T22:17:16.160Z,5.95
2023-12-23T22:19:42.618Z,5.98
2023-12-23T22:22:09.066Z,5.96
2023-12-23T22:24:35.509Z,5.39
2023-12-23T22:27:01.914Z,5.66
2023-12-23T22:29:28.452Z,5.28
2023-12-23T22:31:54.983Z,4.96
2023-12-23T22:34:21.563Z,4.91
2023-12-23T22:36:48.003Z,4.77
2023-12-23T22:39:14.416Z,4.78
2023-12-23T22:41:40.896Z,4.76
2023-12-23T22:44:07.407Z,4.72
2023-12-23T22:46:34.484Z,4.73
2023-12-23T22:49:01.679Z,4.71
2023-12-23T22:51:28.144Z,4.84
2023-12-23T22:53:54.564Z,4.83
2023-12-23T22:56:21.104Z,4.82
2023-12-23T22:58:47.537Z,4.71
2023-12-23T23:01:14.086Z,4.87
2023-12-23T23:03:40.594Z,4.81
2023-12-23T23:06:07.163Z,4.95
2023-12-23T23:08:33.763Z,4.85
2023-12-23T23:11:00.293Z,5.01
2023-12-23T23:13:26.738Z,4.98
2023-12-23T23:15:53.176Z,4.94
2023-12-23T23:18:19.724Z,4.92
2023-12-23T23:20:46.306Z,4.89
2023-12-23T23:23:12.794Z,4.94
2023-12-23T23:25:39.239Z,5.02
2023-12-23T23:28:05.658Z,5.04
2023-12-23T23:30:32.108Z,4.93
2023-12-23T23:32:58.598Z,5.00
2023-12-23T23:35:25.153Z,5.25
2023-12-23T23:37:51.676Z,5.35
2023-12-23T23:40:18.094Z,5.09
2023-12-23T23:42:44.502Z,5.19
2023-12-23T23:45:10.956Z,5.12
2023-12-23T23:47:37.541Z,5.23
2023-12-23T23:50:06.011Z,5.55
2023-12-23T23:52:34.374Z,6.08
2023-12-23T23:55:00.859Z,6.00
2023-12-23T23:57:27.272Z,6.28
2023-12-23T23:59:54.721Z,6.63
